createdAt,value
2022-11-06T00:00:58.915Z,1013.96
2022-11-06T00:01:58.906Z,1013.96
2022-11-06T00:02:59.026Z,1013.86
2022-11-06T00:03:58.903Z,1013.92
2022-11-06T00:04:58.907Z,1013.93
2022-11-06T00:05:58.901Z,1013.90
2022-11-06T00:06:58.885Z,1013.89
2022-11-06T00:07:58.876Z,1013.88
2022-11-06T00:08:58.869Z,1013.86
2022-11-06T00:09:58.876Z,1013.92
2022-11-06T00:10:58.883Z,1013.91
2022-11-06T00:11:58.878Z,1013.90
2022-11-06T00:12:58.876Z,1013.89
2022-11-06T00:13:58.868Z,1013.80
2022-11-06T00:14:58.896Z,1013.83
2022-11-06T00:15:58.878Z,1013.85
2022-11-06T00:16:58.850Z,1013.85
2022-11-06T00:17:58.858Z,1013.87
2022-11-06T00:18:58.848Z,1013.88
2022-11-06T00:19:58.845Z,1013.87
2022-11-06T00:20:58.868Z,1013.85
2022-11-06T00:21:58.837Z,1013.84
2022-11-06T00:22:58.846Z,1013.84
2022-11-06T00:23:58.857Z,1013.81
2022-11-06T00:24:58.837Z,1013.83
2022-11-06T00:25:58.840Z,1013.78
2022-11-06T00:26:58.836Z,1013.82
2022-11-06T00:27:58.833Z,1013.80
2022-11-06T00:28:58.835Z,1013.80
2022-11-06T00:29:58.833Z,1013.78
2022-11-06T00:30:58.829Z,1013.83
2022-11-06T00:31:58.842Z,1013.80
2022-11-06T00:32:58.819Z,1013.82
2022-11-06T00:33:58.816Z,1013.78
2022-11-06T00:34:58.801Z,1013.77
2022-11-06T00:35:58.805Z,1013.77
2022-11-06T00:36:58.848Z,1013.75
2022-11-06T00:38:06.669Z,1013.80
2022-11-06T00:38:58.799Z,1013.78
2022-11-06T00:39:58.801Z,1013.82
2022-11-06T00:40:58.804Z,1013.81
2022-11-06T00:41:58.794Z,1013.84
2022-11-06T00:42:59.240Z,1013.80
2022-11-06T00:43:58.799Z,1013.80
2022-11-06T00:44:58.781Z,1013.75
2022-11-06T00:45:58.781Z,1013.74
2022-11-06T00:46:58.781Z,1013.81
2022-11-06T00:47:58.782Z,1013.77
2022-11-06T00:48:58.780Z,1013.78
2022-11-06T00:49:58.760Z,1013.74
2022-11-06T00:50:58.766Z,1013.79
2022-11-06T00:51:58.753Z,1013.74
2022-11-06T00:52:58.757Z,1013.77
2022-11-06T00:53:58.747Z,1013.71
2022-11-06T00:54:58.809Z,1013.72
2022-11-06T00:55:58.754Z,1013.75
2022-11-06T00:56:58.752Z,1013.75
2022-11-06T00:57:58.740Z,1013.66
2022-11-06T00:58:58.737Z,1013.69
2022-11-06T00:59:58.744Z,1013.72
2022-11-06T01:00:58.759Z,1013.73
2022-11-06T01:01:58.860Z,1013.75
2022-11-06T01:02:58.829Z,1013.75
2022-11-06T01:03:58.735Z,1013.76
2022-11-06T01:04:58.742Z,1013.73
2022-11-06T01:05:58.718Z,1013.73
2022-11-06T01:06:58.742Z,1013.74
2022-11-06T01:07:58.725Z,1013.70
2022-11-06T01:08:58.720Z,1013.72
2022-11-06T01:09:58.707Z,1013.78
2022-11-06T01:10:58.711Z,1013.72
2022-11-06T01:12:14.686Z,1013.73
2022-11-06T01:12:58.697Z,1013.70
2022-11-06T01:13:58.704Z,1013.66
2022-11-06T01:14:58.701Z,1013.67
2022-11-06T01:15:58.687Z,1013.65
2022-11-06T01:16:58.708Z,1013.67
2022-11-06T01:17:58.705Z,1013.69
2022-11-06T01:18:58.702Z,1013.67
2022-11-06T01:19:58.687Z,1013.68
2022-11-06T01:20:58.675Z,1013.69
2022-11-06T01:21:58.687Z,1013.68
2022-11-06T01:22:58.678Z,1013.66
2022-11-06T01:23:58.690Z,1013.67
2022-11-06T01:24:58.734Z,1013.67
2022-11-06T01:25:58.669Z,1013.65
2022-11-06T01:27:25.637Z,1013.64
2022-11-06T01:27:58.652Z,1013.63
2022-11-06T01:28:58.666Z,1013.57
2022-11-06T01:29:58.668Z,1013.60
2022-11-06T01:30:58.709Z,1013.54
2022-11-06T01:31:58.654Z,1013.57
2022-11-06T01:32:58.654Z,1013.56
2022-11-06T01:33:58.644Z,1013.51
2022-11-06T01:34:58.667Z,1013.48
2022-11-06T01:35:58.644Z,1013.53
2022-11-06T01:36:58.642Z,1013.52
2022-11-06T01:37:58.642Z,1013.49
2022-11-06T01:38:58.685Z,1013.49
2022-11-06T01:39:58.622Z,1013.45
2022-11-06T01:40:58.637Z,1013.47
2022-11-06T01:41:58.632Z,1013.50
2022-11-06T01:42:58.639Z,1013.49
2022-11-06T01:43:58.625Z,1013.46
2022-11-06T01:44:58.668Z,1013.48
2022-11-06T01:45:58.617Z,1013.44
2022-11-06T01:46:58.610Z,1013.42
2022-11-06T01:47:58.618Z,1013.44
2022-11-06T01:48:58.633Z,1013.41
2022-11-06T01:49:58.609Z,1013.40
2022-11-06T01:50:58.611Z,1013.41
2022-11-06T01:51:58.590Z,1013.38
2022-11-06T01:52:58.598Z,1013.32
2022-11-06T01:53:58.601Z,1013.31
2022-11-06T01:54:58.603Z,1013.27
2022-11-06T01:55:58.592Z,1013.22
2022-11-06T01:56:58.581Z,1013.18
2022-11-06T01:57:58.611Z,1013.19
2022-11-06T01:58:58.578Z,1013.20
2022-11-06T01:59:58.635Z,1013.27
2022-11-06T02:00:58.561Z,1013.24
2022-11-06T02:01:58.655Z,1013.24
2022-11-06T02:02:58.647Z,1013.22
2022-11-06T02:03:58.583Z,1013.19
2022-11-06T02:04:58.562Z,1013.23
2022-11-06T02:05:58.561Z,1013.20
2022-11-06T02:06:58.552Z,1013.20
2022-11-06T02:07:58.564Z,1013.19
2022-11-06T02:08:58.571Z,1013.16
2022-11-06T02:09:58.564Z,1013.14
2022-11-06T02:10:58.553Z,1013.09
2022-11-06T02:11:58.541Z,1013.05
2022-11-06T02:12:58.545Z,1013.14
2022-11-06T02:13:58.529Z,1013.09
2022-11-06T02:14:58.584Z,1013.10
2022-11-06T02:15:58.526Z,1013.06
2022-11-06T02:16:58.520Z,1013.07
2022-11-06T02:17:58.532Z,1013.11
2022-11-06T02:18:58.544Z,1013.06
2022-11-06T02:19:58.543Z,1013.09
2022-11-06T02:20:58.517Z,1013.14
2022-11-06T02:21:58.531Z,1013.09
2022-11-06T02:22:58.508Z,1013.08
2022-11-06T02:23:58.539Z,1013.03
2022-11-06T02:24:58.493Z,1013.07
2022-11-06T02:25:58.520Z,1013.02
2022-11-06T02:26:58.602Z,1013.03
2022-11-06T02:27:58.494Z,1013.04
2022-11-06T02:28:58.497Z,1012.99
2022-11-06T02:29:58.481Z,1012.93
2022-11-06T02:30:58.493Z,1012.96
2022-11-06T02:31:58.489Z,1012.93
2022-11-06T02:32:58.504Z,1012.95
2022-11-06T02:33:58.469Z,1012.91
2022-11-06T02:34:58.479Z,1012.91
2022-11-06T02:35:58.495Z,1012.89
2022-11-06T02:36:58.463Z,1012.90
2022-11-06T02:37:58.480Z,1012.90
2022-11-06T02:38:58.478Z,1012.86
2022-11-06T02:39:58.465Z,1012.86
2022-11-06T02:40:58.452Z,1012.89
2022-11-06T02:41:58.472Z,1012.85
2022-11-06T02:42:58.441Z,1012.93
2022-11-06T02:43:58.467Z,1012.96
2022-11-06T02:44:58.444Z,1012.98
2022-11-06T02:45:58.453Z,1013.00
2022-11-06T02:46:58.442Z,1013.00
2022-11-06T02:47:58.461Z,1012.99
2022-11-06T02:48:58.437Z,1013.00
2022-11-06T02:49:58.450Z,1013.00
2022-11-06T02:50:58.420Z,1012.94
2022-11-06T02:51:58.434Z,1012.96
2022-11-06T02:52:58.413Z,1012.97
2022-11-06T02:53:58.416Z,1012.93
2022-11-06T02:54:58.450Z,1012.94
2022-11-06T02:55:58.417Z,1012.98
2022-11-06T02:56:58.409Z,1012.97
2022-11-06T02:57:58.410Z,1013.00
2022-11-06T02:58:58.406Z,1012.98
2022-11-06T02:59:58.409Z,1012.95
2022-11-06T03:00:58.407Z,1012.93
2022-11-06T03:01:58.544Z,1012.90
2022-11-06T03:02:58.592Z,1012.92
2022-11-06T03:03:58.382Z,1012.89
2022-11-06T03:04:58.410Z,1012.88
2022-11-06T03:05:58.388Z,1012.88
2022-11-06T03:06:58.385Z,1012.95
2022-11-06T03:07:58.396Z,1012.99
2022-11-06T03:08:58.365Z,1013.02
2022-11-06T03:09:58.375Z,1012.99
2022-11-06T03:10:58.359Z,1012.99
2022-11-06T03:11:58.395Z,1013.05
2022-11-06T03:12:58.366Z,1013.01
2022-11-06T03:13:58.366Z,1013.00
2022-11-06T03:14:58.427Z,1013.04
2022-11-06T03:15:58.343Z,1013.01
2022-11-06T03:16:58.372Z,1012.97
2022-11-06T03:17:58.359Z,1012.96
2022-11-06T03:18:58.345Z,1012.97
2022-11-06T03:19:58.343Z,1013.01
2022-11-06T03:20:58.333Z,1012.98
2022-11-06T03:21:58.355Z,1013.01
2022-11-06T03:22:58.334Z,1012.97
2022-11-06T03:23:58.333Z,1012.98
2022-11-06T03:24:58.341Z,1012.97
2022-11-06T03:25:58.325Z,1012.94
2022-11-06T03:26:58.351Z,1012.94
2022-11-06T03:27:58.320Z,1012.92
2022-11-06T03:28:58.308Z,1012.93
2022-11-06T03:29:58.320Z,1012.90
2022-11-06T03:30:58.312Z,1012.96
2022-11-06T03:31:58.309Z,1012.91
2022-11-06T03:32:58.314Z,1012.93
2022-11-06T03:33:58.307Z,1012.92
2022-11-06T03:34:58.306Z,1012.94
2022-11-06T03:35:58.296Z,1012.94
2022-11-06T03:36:58.293Z,1012.96
2022-11-06T03:37:58.302Z,1012.95
2022-11-06T03:38:58.300Z,1012.93
2022-11-06T03:39:58.281Z,1012.95
2022-11-06T03:40:58.285Z,1012.91
2022-11-06T03:41:58.276Z,1012.88
2022-11-06T03:42:58.282Z,1012.90
2022-11-06T03:43:58.305Z,1012.85
2022-11-06T03:44:58.262Z,1012.83
2022-11-06T03:45:58.270Z,1012.82
2022-11-06T03:46:58.350Z,1012.83
2022-11-06T03:47:58.272Z,1012.81
2022-11-06T03:48:58.268Z,1012.82
2022-11-06T03:49:58.264Z,1012.80
2022-11-06T03:50:58.246Z,1012.81
2022-11-06T03:51:58.255Z,1012.82
2022-11-06T03:52:58.242Z,1012.79
2022-11-06T03:53:58.245Z,1012.75
2022-11-06T03:54:58.264Z,1012.75
2022-11-06T03:55:58.238Z,1012.76
2022-11-06T03:56:58.244Z,1012.73
2022-11-06T03:57:58.236Z,1012.71
2022-11-06T03:58:58.252Z,1012.73
2022-11-06T03:59:58.227Z,1012.74
2022-11-06T04:00:58.221Z,1012.74
2022-11-06T04:01:58.346Z,1012.74
2022-11-06T04:02:58.409Z,1012.75
2022-11-06T04:03:58.223Z,1012.78
2022-11-06T04:04:58.229Z,1012.73
2022-11-06T04:05:58.211Z,1012.69
2022-11-06T04:06:58.217Z,1012.74
2022-11-06T04:07:58.206Z,1012.72
2022-11-06T04:08:58.193Z,1012.70
2022-11-06T04:09:58.216Z,1012.74
2022-11-06T04:10:58.201Z,1012.73
2022-11-06T04:11:58.198Z,1012.79
2022-11-06T04:12:58.188Z,1012.76
2022-11-06T04:13:58.199Z,1012.71
2022-11-06T04:14:58.233Z,1012.69
2022-11-06T04:15:58.195Z,1012.66
2022-11-06T04:16:58.179Z,1012.63
2022-11-06T04:17:58.181Z,1012.63
2022-11-06T04:18:58.158Z,1012.66
2022-11-06T04:19:58.159Z,1012.61
2022-11-06T04:20:58.182Z,1012.59
2022-11-06T04:21:58.178Z,1012.60
2022-11-06T04:22:58.144Z,1012.54
2022-11-06T04:23:58.160Z,1012.58
2022-11-06T04:24:58.159Z,1012.57
2022-11-06T04:25:58.153Z,1012.55
2022-11-06T04:26:58.141Z,1012.54
2022-11-06T04:27:58.141Z,1012.55
2022-11-06T04:28:58.151Z,1012.54
2022-11-06T04:29:58.133Z,1012.55
2022-11-06T04:30:58.141Z,1012.52
2022-11-06T04:31:58.144Z,1012.55
2022-11-06T04:33:00.343Z,1012.49
2022-11-06T04:33:58.135Z,1012.54
2022-11-06T04:34:58.133Z,1012.53
2022-11-06T04:35:58.121Z,1012.56
2022-11-06T04:36:58.126Z,1012.60
2022-11-06T04:37:58.107Z,1012.59
2022-11-06T04:38:58.117Z,1012.64
2022-11-06T04:39:58.093Z,1012.65
2022-11-06T04:40:58.130Z,1012.67
2022-11-06T04:41:58.105Z,1012.70
2022-11-06T04:42:58.152Z,1012.72
2022-11-06T04:43:58.094Z,1012.73
2022-11-06T04:44:58.111Z,1012.71
2022-11-06T04:45:58.112Z,1012.68
2022-11-06T04:46:58.118Z,1012.68
2022-11-06T04:47:58.092Z,1012.65
2022-11-06T04:48:58.079Z,1012.65
2022-11-06T04:49:58.065Z,1012.66
2022-11-06T04:50:58.072Z,1012.63
2022-11-06T04:51:58.075Z,1012.64
2022-11-06T04:52:58.158Z,1012.64
2022-11-06T04:53:58.063Z,1012.61
2022-11-06T04:54:58.070Z,1012.62
2022-11-06T04:55:58.080Z,1012.58
2022-11-06T04:56:58.072Z,1012.58
2022-11-06T04:57:58.056Z,1012.56
2022-11-06T04:58:58.054Z,1012.51
2022-11-06T04:59:58.045Z,1012.54
2022-11-06T05:00:58.120Z,1012.51
2022-11-06T05:01:58.079Z,1012.49
2022-11-06T05:02:58.053Z,1012.48
2022-11-06T05:03:58.040Z,1012.44
2022-11-06T05:04:58.021Z,1012.43
2022-11-06T05:05:58.031Z,1012.44
2022-11-06T05:06:58.023Z,1012.40
2022-11-06T05:07:58.021Z,1012.41
2022-11-06T05:08:58.042Z,1012.34
2022-11-06T05:09:58.008Z,1012.33
2022-11-06T05:10:58.013Z,1012.36
2022-11-06T05:11:58.019Z,1012.38
2022-11-06T05:12:58.025Z,1012.36
2022-11-06T05:13:57.998Z,1012.38
2022-11-06T05:14:58.015Z,1012.40
2022-11-06T05:15:58.008Z,1012.39
2022-11-06T05:16:58.005Z,1012.40
2022-11-06T05:17:57.991Z,1012.29
2022-11-06T05:18:57.977Z,1012.29
2022-11-06T05:19:57.989Z,1012.33
2022-11-06T05:20:57.986Z,1012.31
2022-11-06T05:21:57.984Z,1012.30
2022-11-06T05:22:58.079Z,1012.32
2022-11-06T05:23:57.971Z,1012.36
2022-11-06T05:26:37.820Z,1012.36
2022-11-06T05:27:45.472Z,1012.41
2022-11-06T05:28:37.802Z,1012.40
2022-11-06T05:29:37.800Z,1012.41
2022-11-06T05:30:37.781Z,1012.44
2022-11-06T05:31:45.870Z,1012.40
2022-11-06T05:32:37.790Z,1012.38
2022-11-06T05:33:37.806Z,1012.34
2022-11-06T05:34:47.031Z,1012.40
2022-11-06T05:35:37.784Z,1012.37
2022-11-06T05:36:37.798Z,1012.34
2022-11-06T05:37:45.308Z,1012.40
2022-11-06T05:38:37.754Z,1012.32
2022-11-06T05:39:41.556Z,1012.37
2022-11-06T05:40:45.612Z,1012.37
2022-11-06T05:41:46.650Z,1012.32
2022-11-06T05:42:46.329Z,1012.36
2022-11-06T05:43:45.721Z,1012.33
2022-11-06T05:44:44.848Z,1012.35
2022-11-06T05:45:37.738Z,1012.38
2022-11-06T05:46:53.069Z,1012.39
2022-11-06T05:47:44.820Z,1012.38
2022-11-06T05:48:45.826Z,1012.39
2022-11-06T05:49:45.331Z,1012.37
2022-11-06T05:50:37.715Z,1012.40
2022-11-06T05:51:37.714Z,1012.39
2022-11-06T05:52:44.783Z,1012.42
2022-11-06T05:53:45.272Z,1012.42
2022-11-06T05:54:45.957Z,1012.43
2022-11-06T05:57:24.086Z,1012.40
2022-11-06T05:58:24.566Z,1012.41
2022-11-06T05:59:26.268Z,1012.37
2022-11-06T06:00:25.809Z,1012.37
2022-11-06T06:01:25.392Z,1012.39
2022-11-06T06:02:25.540Z,1012.37
2022-11-06T06:03:24.574Z,1012.40
2022-11-06T06:04:25.450Z,1012.39
2022-11-06T06:06:56.300Z,1012.33
2022-11-06T06:08:04.553Z,1012.40
2022-11-06T06:09:03.851Z,1012.41
2022-11-06T06:10:04.058Z,1012.42
2022-11-06T06:11:05.605Z,1012.44
2022-11-06T06:12:04.641Z,1012.45
2022-11-06T06:13:07.675Z,1012.46
2022-11-06T06:14:05.737Z,1012.41
2022-11-06T06:14:56.303Z,1012.43
2022-11-06T06:16:04.763Z,1012.40
2022-11-06T06:17:04.763Z,1012.41
2022-11-06T06:18:05.315Z,1012.41
2022-11-06T06:20:44.140Z,1012.41
2022-11-06T06:21:44.808Z,1012.38
2022-11-06T06:22:36.588Z,1012.40
2022-11-06T06:25:27.366Z,1012.42
2022-11-06T06:26:27.185Z,1012.36
2022-11-06T06:27:27.168Z,1012.43
2022-11-06T06:28:35.617Z,1012.35
2022-11-06T06:29:35.163Z,1012.42
2022-11-06T06:30:35.716Z,1012.44
2022-11-06T06:31:34.716Z,1012.52
2022-11-06T06:32:27.158Z,1012.49
2022-11-06T06:33:35.264Z,1012.54
2022-11-06T06:34:36.319Z,1012.55
2022-11-06T06:35:34.664Z,1012.52
2022-11-06T06:36:34.666Z,1012.56
2022-11-06T06:37:34.190Z,1012.51
2022-11-06T06:38:27.120Z,1012.58
2022-11-06T06:39:34.926Z,1012.55
2022-11-06T06:40:36.468Z,1012.62
2022-11-06T06:41:35.496Z,1012.61
2022-11-06T06:42:34.674Z,1012.61
2022-11-06T06:43:27.110Z,1012.55
2022-11-06T06:44:27.094Z,1012.63
2022-11-06T06:45:35.576Z,1012.60
2022-11-06T06:46:27.108Z,1012.65
2022-11-06T06:47:34.651Z,1012.62
2022-11-06T06:48:27.096Z,1012.60
2022-11-06T06:49:27.063Z,1012.62
2022-11-06T06:50:35.603Z,1012.66
2022-11-06T06:51:35.175Z,1012.65
2022-11-06T06:52:27.057Z,1012.66
2022-11-06T06:53:27.100Z,1012.66
2022-11-06T06:54:35.194Z,1012.72
2022-11-06T06:55:27.044Z,1012.72
2022-11-06T06:56:27.047Z,1012.68
2022-11-06T06:57:27.058Z,1012.67
2022-11-06T06:58:34.277Z,1012.69
2022-11-06T06:59:35.310Z,1012.68
2022-11-06T07:00:40.899Z,1012.65
2022-11-06T07:01:27.212Z,1012.66
2022-11-06T07:02:27.118Z,1012.70
2022-11-06T07:03:27.019Z,1012.69
2022-11-06T07:04:27.021Z,1012.69
2022-11-06T07:05:27.011Z,1012.72
2022-11-06T07:06:27.006Z,1012.68
2022-11-06T07:07:27.010Z,1012.69
2022-11-06T07:08:27.029Z,1012.68
2022-11-06T07:09:26.993Z,1012.70
2022-11-06T07:10:27.003Z,1012.75
2022-11-06T07:11:26.989Z,1012.75
2022-11-06T07:12:26.980Z,1012.72
2022-11-06T07:13:29.304Z,1012.72
2022-11-06T07:14:26.988Z,1012.72
2022-11-06T07:15:26.994Z,1012.72
2022-11-06T07:16:26.970Z,1012.70
2022-11-06T07:17:26.975Z,1012.68
2022-11-06T07:18:26.973Z,1012.71
2022-11-06T07:19:26.981Z,1012.69
2022-11-06T07:20:27.324Z,1012.79
2022-11-06T07:21:26.967Z,1012.84
2022-11-06T07:22:32.364Z,1012.85
2022-11-06T07:23:26.959Z,1012.85
2022-11-06T07:24:26.955Z,1012.89
2022-11-06T07:25:26.970Z,1012.83
2022-11-06T07:26:26.946Z,1012.81
2022-11-06T07:27:26.950Z,1012.77
2022-11-06T07:28:26.930Z,1012.78
2022-11-06T07:29:26.944Z,1012.78
2022-11-06T07:30:26.954Z,1012.79
2022-11-06T07:31:26.974Z,1012.75
2022-11-06T07:32:26.935Z,1012.69
2022-11-06T07:33:26.918Z,1012.73
2022-11-06T07:34:26.928Z,1012.73
2022-11-06T07:35:26.940Z,1012.71
2022-11-06T07:36:26.938Z,1012.71
2022-11-06T07:37:26.915Z,1012.66
2022-11-06T07:38:27.842Z,1012.69
2022-11-06T07:39:26.911Z,1012.71
2022-11-06T07:40:26.938Z,1012.76
2022-11-06T07:41:26.913Z,1012.78
2022-11-06T07:42:26.936Z,1012.79
2022-11-06T07:43:26.909Z,1012.82
2022-11-06T07:44:26.906Z,1012.83
2022-11-06T07:45:26.895Z,1012.84
2022-11-06T07:46:26.899Z,1012.82
2022-11-06T07:47:26.914Z,1012.77
2022-11-06T07:48:26.905Z,1012.78
2022-11-06T07:49:26.891Z,1012.75
2022-11-06T07:50:26.892Z,1012.74
2022-11-06T07:51:26.887Z,1012.67
2022-11-06T07:52:26.909Z,1012.63
2022-11-06T07:53:26.880Z,1012.66
2022-11-06T07:54:26.886Z,1012.65
2022-11-06T07:55:26.871Z,1012.63
2022-11-06T07:56:26.880Z,1012.54
2022-11-06T07:57:26.883Z,1012.60
2022-11-06T07:58:26.880Z,1012.54
2022-11-06T07:59:26.886Z,1012.59
2022-11-06T08:00:26.860Z,1012.51
2022-11-06T08:01:26.975Z,1012.55
2022-11-06T08:02:26.895Z,1012.64
2022-11-06T08:03:26.895Z,1012.58
2022-11-06T08:04:26.886Z,1012.65
2022-11-06T08:05:26.855Z,1012.65
2022-11-06T08:06:26.858Z,1012.66
2022-11-06T08:07:26.857Z,1012.69
2022-11-06T08:08:26.866Z,1012.71
2022-11-06T08:09:26.878Z,1012.74
2022-11-06T08:10:26.900Z,1012.69
2022-11-06T08:11:26.897Z,1012.68
2022-11-06T08:12:26.842Z,1012.67
2022-11-06T08:13:26.855Z,1012.62
2022-11-06T08:14:26.851Z,1012.60
2022-11-06T08:15:26.859Z,1012.62
2022-11-06T08:16:26.829Z,1012.54
2022-11-06T08:17:26.857Z,1012.52
2022-11-06T08:18:26.856Z,1012.49
2022-11-06T08:19:26.956Z,1012.49
2022-11-06T08:20:26.981Z,1012.53
2022-11-06T08:21:26.829Z,1012.52
2022-11-06T08:22:27.743Z,1012.50
2022-11-06T08:23:26.826Z,1012.52
2022-11-06T08:24:26.854Z,1012.54
2022-11-06T08:25:27.840Z,1012.53
2022-11-06T08:26:26.924Z,1012.53
2022-11-06T08:27:26.823Z,1012.56
2022-11-06T08:28:26.830Z,1012.56
2022-11-06T08:29:26.811Z,1012.51
2022-11-06T08:30:26.858Z,1012.51
2022-11-06T08:31:26.831Z,1012.55
2022-11-06T08:32:27.051Z,1012.52
2022-11-06T08:33:26.820Z,1012.51
2022-11-06T08:34:26.808Z,1012.52
2022-11-06T08:35:26.810Z,1012.55
2022-11-06T08:36:26.820Z,1012.54
2022-11-06T08:37:26.813Z,1012.50
2022-11-06T08:38:26.801Z,1012.57
2022-11-06T08:39:26.810Z,1012.48
2022-11-06T08:40:30.850Z,1012.52
2022-11-06T08:41:26.810Z,1012.47
2022-11-06T08:42:26.816Z,1012.44
2022-11-06T08:43:26.796Z,1012.45
2022-11-06T08:44:26.825Z,1012.39
2022-11-06T08:45:26.798Z,1012.35
2022-11-06T08:46:26.785Z,1012.37
2022-11-06T08:47:26.808Z,1012.28
2022-11-06T08:48:26.857Z,1012.28
2022-11-06T08:49:26.809Z,1012.24
2022-11-06T08:50:26.869Z,1012.19
2022-11-06T08:51:26.792Z,1012.23
2022-11-06T08:52:31.172Z,1012.19
2022-11-06T08:53:26.810Z,1012.17
2022-11-06T08:54:26.776Z,1012.18
2022-11-06T08:55:26.780Z,1012.23
2022-11-06T08:56:26.804Z,1012.22
2022-11-06T08:57:26.840Z,1012.22
2022-11-06T08:58:26.782Z,1012.23
2022-11-06T08:59:26.761Z,1012.22
2022-11-06T09:00:26.831Z,1012.28
2022-11-06T09:01:26.863Z,1012.27
2022-11-06T09:02:26.877Z,1012.24
2022-11-06T09:03:26.870Z,1012.26
2022-11-06T09:04:26.769Z,1012.23
2022-11-06T09:05:26.754Z,1012.25
2022-11-06T09:06:26.771Z,1012.30
2022-11-06T09:07:26.764Z,1012.23
2022-11-06T09:08:26.763Z,1012.26
2022-11-06T09:09:26.757Z,1012.20
2022-11-06T09:10:26.763Z,1012.24
2022-11-06T09:11:26.765Z,1012.22
2022-11-06T09:12:26.754Z,1012.26
2022-11-06T09:13:26.753Z,1012.25
2022-11-06T09:14:26.769Z,1012.19
2022-11-06T09:15:26.772Z,1012.25
2022-11-06T09:16:26.747Z,1012.22
2022-11-06T09:17:26.773Z,1012.20
2022-11-06T09:18:26.748Z,1012.23
2022-11-06T09:19:26.756Z,1012.19
2022-11-06T09:20:26.754Z,1012.24
2022-11-06T09:21:26.731Z,1012.22
2022-11-06T09:22:26.722Z,1012.23
2022-11-06T09:23:26.749Z,1012.25
2022-11-06T09:24:49.640Z,1012.31
2022-11-06T09:25:26.740Z,1012.34
2022-11-06T09:26:26.721Z,1012.39
2022-11-06T09:27:26.727Z,1012.33
2022-11-06T09:28:26.729Z,1012.33
2022-11-06T09:29:26.739Z,1012.33
2022-11-06T09:30:26.721Z,1012.32
2022-11-06T09:31:26.715Z,1012.30
2022-11-06T09:32:26.718Z,1012.26
2022-11-06T09:33:26.725Z,1012.28
2022-11-06T09:34:26.722Z,1012.30
2022-11-06T09:35:26.737Z,1012.33
2022-11-06T09:36:26.873Z,1012.37
2022-11-06T09:37:26.704Z,1012.31
2022-11-06T09:38:26.717Z,1012.34
2022-11-06T09:39:26.716Z,1012.37
2022-11-06T09:40:26.704Z,1012.39
2022-11-06T09:41:26.702Z,1012.33
2022-11-06T09:42:26.695Z,1012.36
2022-11-06T09:43:58.086Z,1012.36
2022-11-06T09:44:26.734Z,1012.29
2022-11-06T09:45:26.702Z,1012.33
2022-11-06T09:46:26.706Z,1012.28
2022-11-06T09:47:26.690Z,1012.32
2022-11-06T09:48:26.702Z,1012.34
2022-11-06T09:49:26.706Z,1012.34
2022-11-06T09:50:26.711Z,1012.34
2022-11-06T09:51:26.695Z,1012.32
2022-11-06T09:52:26.682Z,1012.33
2022-11-06T09:53:26.688Z,1012.36
2022-11-06T09:54:26.714Z,1012.35
2022-11-06T09:55:26.708Z,1012.32
2022-11-06T09:56:26.688Z,1012.36
2022-11-06T09:57:26.701Z,1012.31
2022-11-06T09:58:26.687Z,1012.38
2022-11-06T09:59:26.684Z,1012.40
2022-11-06T10:00:26.691Z,1012.45
2022-11-06T10:01:27.597Z,1012.39
2022-11-06T10:02:26.816Z,1012.41
2022-11-06T10:03:26.674Z,1012.33
2022-11-06T10:04:26.691Z,1012.33
2022-11-06T10:05:26.702Z,1012.33
2022-11-06T10:06:26.721Z,1012.35
2022-11-06T10:07:26.680Z,1012.40
2022-11-06T10:08:26.682Z,1012.40
2022-11-06T10:09:26.674Z,1012.36
2022-11-06T10:10:26.705Z,1012.37
2022-11-06T10:11:26.689Z,1012.25
2022-11-06T10:12:26.712Z,1012.30
2022-11-06T10:13:26.669Z,1012.28
2022-11-06T10:14:26.668Z,1012.25
2022-11-06T10:15:26.686Z,1012.23
2022-11-06T10:16:26.684Z,1012.24
2022-11-06T10:17:26.684Z,1012.25
2022-11-06T10:18:26.681Z,1012.28
2022-11-06T10:19:26.701Z,1012.22
2022-11-06T10:20:27.473Z,1012.24
2022-11-06T10:21:26.723Z,1012.16
2022-11-06T10:22:26.683Z,1012.24
2022-11-06T10:23:26.691Z,1012.23
2022-11-06T10:24:26.672Z,1012.13
2022-11-06T10:25:26.692Z,1012.16
2022-11-06T10:26:31.232Z,1012.12
2022-11-06T10:27:43.326Z,1012.10
2022-11-06T10:28:26.675Z,1012.05
2022-11-06T10:29:26.690Z,1012.05
2022-11-06T10:30:26.685Z,1012.02
2022-11-06T10:31:26.686Z,1011.98
2022-11-06T10:32:26.697Z,1011.99
2022-11-06T10:33:26.703Z,1011.97
2022-11-06T10:34:26.686Z,1011.90
2022-11-06T10:35:26.692Z,1011.90
2022-11-06T10:36:27.415Z,1011.87
2022-11-06T10:37:26.696Z,1011.88
2022-11-06T10:38:26.691Z,1011.76
2022-11-06T10:39:26.695Z,1011.84
2022-11-06T10:40:26.695Z,1011.84
2022-11-06T10:41:26.707Z,1011.76
2022-11-06T10:42:26.683Z,1011.83
2022-11-06T10:43:26.711Z,1011.81
2022-11-06T10:44:26.714Z,1011.79
2022-11-06T10:45:26.705Z,1011.76
2022-11-06T10:46:26.693Z,1011.72
2022-11-06T10:47:26.693Z,1011.71
2022-11-06T10:48:30.467Z,1011.66
2022-11-06T10:49:26.695Z,1011.71
2022-11-06T10:50:26.815Z,1011.63
2022-11-06T10:51:26.693Z,1011.69
2022-11-06T10:52:26.701Z,1011.63
2022-11-06T10:53:26.694Z,1011.70
2022-11-06T10:54:26.689Z,1011.67
2022-11-06T10:55:26.695Z,1011.68
2022-11-06T10:56:26.711Z,1011.73
2022-11-06T10:57:26.684Z,1011.75
2022-11-06T10:58:26.701Z,1011.65
2022-11-06T10:59:26.703Z,1011.63
2022-11-06T11:00:26.682Z,1011.62
2022-11-06T11:01:26.872Z,1011.62
2022-11-06T11:02:26.775Z,1011.56
2022-11-06T11:03:26.834Z,1011.61
2022-11-06T11:04:26.708Z,1011.63
2022-11-06T11:05:26.691Z,1011.64
2022-11-06T11:06:26.703Z,1011.58
2022-11-06T11:07:26.686Z,1011.56
2022-11-06T11:08:26.754Z,1011.58
2022-11-06T11:09:26.684Z,1011.56
2022-11-06T11:10:26.714Z,1011.54
2022-11-06T11:11:26.691Z,1011.58
2022-11-06T11:12:26.696Z,1011.55
2022-11-06T11:13:26.689Z,1011.50
2022-11-06T11:14:26.696Z,1011.48
2022-11-06T11:15:26.697Z,1011.51
2022-11-06T11:16:26.712Z,1011.48
2022-11-06T11:17:26.702Z,1011.43
2022-11-06T11:18:26.689Z,1011.44
2022-11-06T11:19:26.687Z,1011.43
2022-11-06T11:20:26.694Z,1011.42
2022-11-06T11:21:26.690Z,1011.39
2022-11-06T11:22:32.819Z,1011.39
2022-11-06T11:23:26.813Z,1011.42
2022-11-06T11:24:26.685Z,1011.38
2022-11-06T11:25:26.729Z,1011.41
2022-11-06T11:26:26.693Z,1011.36
2022-11-06T11:27:26.673Z,1011.34
2022-11-06T11:28:26.688Z,1011.35
2022-11-06T11:29:26.701Z,1011.33
2022-11-06T11:30:26.679Z,1011.33
2022-11-06T11:31:26.686Z,1011.33
2022-11-06T11:32:26.684Z,1011.26
2022-11-06T11:33:26.689Z,1011.32
2022-11-06T11:34:26.691Z,1011.24
2022-11-06T11:35:26.690Z,1011.35
2022-11-06T11:36:26.698Z,1011.32
2022-11-06T11:37:26.688Z,1011.25
2022-11-06T11:38:26.686Z,1011.20
2022-11-06T11:39:26.718Z,1011.20
2022-11-06T11:40:26.697Z,1011.13
2022-11-06T11:41:26.689Z,1011.12
2022-11-06T11:42:26.673Z,1011.13
2022-11-06T11:43:26.693Z,1011.12
2022-11-06T11:44:26.674Z,1011.05
2022-11-06T11:45:26.697Z,1011.09
2022-11-06T11:46:26.693Z,1011.12
2022-11-06T11:47:26.701Z,1011.13
2022-11-06T11:48:26.721Z,1011.13
2022-11-06T11:49:26.700Z,1011.18
2022-11-06T11:50:26.754Z,1011.11
2022-11-06T11:51:26.694Z,1011.02
2022-11-06T11:52:26.719Z,1010.99
2022-11-06T11:53:26.671Z,1011.06
2022-11-06T11:54:26.728Z,1011.06
2022-11-06T11:55:26.683Z,1011.02
2022-11-06T11:56:49.542Z,1011.02
2022-11-06T11:57:26.668Z,1011.02
2022-11-06T11:58:26.673Z,1011.05
2022-11-06T11:59:26.676Z,1011.03
2022-11-06T12:00:26.685Z,1011.00
2022-11-06T12:01:26.719Z,1010.99
2022-11-06T12:02:27.945Z,1010.98
2022-11-06T12:03:26.812Z,1010.97
2022-11-06T12:04:26.684Z,1010.89
2022-11-06T12:05:26.672Z,1010.87
2022-11-06T12:06:26.720Z,1010.84
2022-11-06T12:07:26.672Z,1010.73
2022-11-06T12:08:26.677Z,1010.76
2022-11-06T12:09:26.664Z,1010.69
2022-11-06T12:10:26.667Z,1010.62
2022-11-06T12:11:26.680Z,1010.66
2022-11-06T12:12:26.703Z,1010.65
2022-11-06T12:13:26.768Z,1010.59
2022-11-06T12:14:26.676Z,1010.53